Time;durP1;ratioP1;P1;durP2;ratioP2;P2;SDS_P1;SDS_P2;PMS_P1;PMS_P2;Temp;Humidity;BMP_temperature;BMP_pressure;BME280_temperature;BME280_humidity;BME280_pressure;Samples;Min_cycle;Max_cycle;Signal;HPM_P1;HPM_P2
2022/02/21 05:00:46;;;;;;;1.70;1.00;;;5.10;99.90;;;;;;5759056;23;20484;-67
2022/02/21 05:03:12;;;;;;;3.73;1.57;;;5.10;99.90;;;;;;4959202;28;20443;-66
2022/02/21 05:05:39;;;;;;;6.93;1.90;;;5.20;99.90;;;;;;4959230;28;20478;-67
2022/02/21 05:08:06;;;;;;;4.43;1.20;;;5.20;99.90;;;;;;4959821;29;20483;-67
2022/02/21 05:10:33;;;;;;;2.90;1.13;;;5.30;99.90;;;;;;4958910;28;20483;-68
2022/02/21 05:12:59;;;;;;;7.30;1.67;;;5.30;99.90;;;;;;4958968;28;20466;-68
2022/02/21 05:15:26;;;;;;;2.90;1.60;;;5.40;99.90;;;;;;4959398;29;20462;-68
2022/02/21 05:17:55;;;;;;;6.33;1.53;;;5.40;99.90;;;;;;4960088;28;20506;-67
2022/02/21 05:20:22;;;;;;;7.27;1.40;;;5.50;99.90;;;;;;4958584;28;20547;-67
2022/02/21 05:22:49;;;;;;;6.23;2.13;;;5.50;99.90;;;;;;4958592;28;20542;-67
2022/02/21 05:25:16;;;;;;;5.87;1.50;;;5.50;99.90;;;;;;4958630;28;20460;-67
2022/02/21 05:27:43;;;;;;;6.60;1.50;;;5.50;99.90;;;;;;4958461;28;20874;-66
2022/02/21 05:30:13;;;;;;;6.73;1.87;;;5.60;99.90;;;;;;4958195;28;20454;-67
2022/02/21 05:32:39;;;;;;;5.90;2.00;;;5.60;99.90;;;;;;4958498;28;20462;-68
2022/02/21 05:35:09;;;;;;;5.73;1.80;;;5.60;99.90;;;;;;4958191;28;20459;-66
2022/02/21 05:37:35;;;;;;;15.03;2.70;;;5.70;99.90;;;;;;4957923;28;20865;-68
2022/02/21 05:40:02;;;;;;;7.43;1.80;;;5.70;99.90;;;;;;4958290;28;20466;-68
2022/02/21 05:42:30;;;;;;;7.13;2.20;;;5.70;99.90;;;;;;4957854;28;20987;-67
2022/02/21 05:44:57;;;;;;;4.43;1.80;;;5.70;99.90;;;;;;4957893;28;20740;-68
2022/02/21 05:47:23;;;;;;;9.63;2.73;;;5.80;99.90;;;;;;4958018;28;20487;-67
2022/02/21 05:49:50;;;;;;;7.90;2.07;;;5.70;99.90;;;;;;4958161;28;20493;-68
2022/02/21 05:52:18;;;;;;;9.40;2.23;;;5.70;99.90;;;;;;4960621;28;20483;-68
2022/02/21 05:54:45;;;;;;;2.60;1.30;;;5.80;99.90;;;;;;4962472;28;20451;-68
2022/02/21 05:57:12;;;;;;;7.50;2.30;;;5.80;99.90;;;;;;4958251;28;20479;-68
2022/02/21 05:59:38;;;;;;;7.73;1.70;;;5.90;99.90;;;;;;4957794;28;20930;-68
2022/02/21 06:02:05;;;;;;;8.53;1.67;;;5.90;99.90;;;;;;4957687;28;20499;-68
2022/02/21 06:04:32;;;;;;;7.30;1.90;;;5.80;99.90;;;;;;4957475;28;20466;-68
2022/02/21 06:06:59;;;;;;;6.30;2.10;;;5.90;99.90;;;;;;4957678;28;20986;-68
2022/02/21 06:09:27;;;;;;;8.60;2.70;;;5.80;99.90;;;;;;4957909;29;20507;-68
2022/02/21 06:11:54;;;;;;;9.47;2.27;;;5.90;99.90;;;;;;4957733;28;20486;-68
2022/02/21 06:14:21;;;;;;;4.40;1.90;;;5.90;99.90;;;;;;4956705;28;20471;-68
2022/02/21 06:16:48;;;;;;;13.80;2.40;;;5.90;99.90;;;;;;4958350;28;20458;-67
2022/02/21 06:19:15;;;;;;;7.17;2.40;;;5.90;99.90;;;;;;4958058;28;20504;-66
2022/02/21 06:21:42;;;;;;;6.00;2.20;;;5.90;99.90;;;;;;4957643;28;20480;-65
2022/02/21 06:24:09;;;;;;;10.77;3.63;;;5.90;99.90;;;;;;4957404;28;20462;-65
2022/02/21 06:26:37;;;;;;;8.80;2.37;;;5.90;99.90;;;;;;4957529;28;20486;-65
2022/02/21 06:29:04;;;;;;;11.73;2.40;;;5.90;99.90;;;;;;4957456;28;20466;-65
2022/02/21 06:31:32;;;;;;;16.27;2.83;;;5.90;99.90;;;;;;4957476;28;20483;-65
2022/02/21 06:33:59;;;;;;;7.83;2.20;;;5.90;99.90;;;;;;4957189;28;20463;-66
2022/02/21 06:36:26;;;;;;;11.67;2.57;;;6.00;99.90;;;;;;4957214;28;20819;-65
2022/02/21 06:38:52;;;;;;;8.50;2.00;;;6.00;99.90;;;;;;4957286;28;20816;-65
2022/02/21 06:41:19;;;;;;;13.20;3.97;;;6.00;99.90;;;;;;4957173;28;20476;-65
2022/02/21 06:43:47;;;;;;;10.10;2.03;;;6.00;99.90;;;;;;4957184;28;20459;-66
2022/02/21 06:46:14;;;;;;;6.80;1.63;;;5.90;99.90;;;;;;4957402;28;20471;-65
2022/02/21 06:48:41;;;;;;;7.80;2.10;;;5.90;99.90;;;;;;4958396;28;20456;-67
2022/02/21 06:51:07;;;;;;;9.13;2.40;;;5.90;99.90;;;;;;4957425;28;20475;-66
2022/02/21 06:53:34;;;;;;;9.43;2.80;;;5.90;99.90;;;;;;4957299;28;20462;-66
2022/02/21 06:56:01;;;;;;;6.73;2.57;;;5.90;99.90;;;;;;4956903;28;20459;-65
2022/02/21 06:58:28;;;;;;;7.93;2.93;;;5.90;99.90;;;;;;4957236;28;20452;-65
2022/02/21 07:00:56;;;;;;;6.03;2.10;;;5.90;99.90;;;;;;4957039;28;20492;-66
2022/02/21 07:03:24;;;;;;;4.77;1.87;;;5.90;99.90;;;;;;4957262;28;20469;-66
2022/02/21 07:05:51;;;;;;;6.73;2.50;;;5.90;99.90;;;;;;4957356;28;20456;-66
2022/02/21 07:08:17;;;;;;;8.80;2.20;;;5.90;99.90;;;;;;4957115;28;20483;-66
2022/02/21 07:10:44;;;;;;;12.07;3.27;;;5.90;99.90;;;;;;4957070;28;20485;-66
2022/02/21 07:13:11;;;;;;;6.83;2.20;;;5.90;99.90;;;;;;4956800;28;20467;-66
2022/02/21 07:15:37;;;;;;;5.07;1.60;;;5.80;99.90;;;;;;4957123;28;20459;-66
2022/02/21 07:18:05;;;;;;;6.40;2.67;;;5.80;99.90;;;;;;4956886;28;20465;-66
2022/02/21 07:20:32;;;;;;;6.57;2.10;;;5.80;99.90;;;;;;4956823;28;20824;-65
2022/02/21 07:22:59;;;;;;;11.60;2.83;;;5.70;99.90;;;;;;4956735;28;20465;-66
2022/02/21 07:25:26;;;;;;;10.93;2.47;;;5.80;99.90;;;;;;4963418;28;20972;-67
2022/02/21 07:27:53;;;;;;;8.87;2.50;;;6.50;99.90;;;;;;4956331;28;20479;-67
2022/02/21 07:30:23;;;;;;;12.63;2.83;;;7.40;99.90;;;;;;4956642;28;20553;-66
2022/02/21 07:32:51;;;;;;;11.77;3.17;;;8.20;99.90;;;;;;4956747;28;20455;-66
2022/02/21 07:35:20;;;;;;;9.03;2.40;;;8.70;99.90;;;;;;4956799;28;20454;-66
2022/02/21 07:37:46;;;;;;;8.47;2.87;;;9.30;99.90;;;;;;4956262;28;20943;-68
2022/02/21 07:40:16;;;;;;;8.80;2.60;;;9.70;99.90;;;;;;4956497;28;20464;-67
2022/02/21 07:42:49;;;;;;;7.27;2.00;;;10.40;99.90;;;;;;4956416;28;20979;-67
2022/02/21 07:45:17;;;;;;;6.60;2.90;;;10.60;99.90;;;;;;4957215;28;20444;-67
2022/02/21 07:47:44;;;;;;;8.90;2.57;;;10.90;99.90;;;;;;4957305;28;20487;-67
2022/02/21 07:50:11;;;;;;;5.87;2.50;;;11.40;99.80;;;;;;4956279;28;20456;-67
2022/02/21 07:52:40;;;;;;;10.27;2.10;;;11.80;97.90;;;;;;4956471;28;20460;-67
2022/02/21 07:55:08;;;;;;;8.77;2.90;;;12.10;97.10;;;;;;4956613;28;20451;-65
2022/02/21 07:57:34;;;;;;;8.90;4.37;;;12.50;95.70;;;;;;4956658;28;20826;-67
2022/02/21 08:00:01;;;;;;;11.77;2.70;;;12.50;94.70;;;;;;4956496;28;20452;-67
2022/02/21 08:02:28;;;;;;;11.43;2.87;;;12.60;94.70;;;;;;4956125;28;20491;-67
2022/02/21 08:04:55;;;;;;;5.97;2.70;;;12.70;93.10;;;;;;4956080;28;20462;-66
2022/02/21 08:07:22;;;;;;;9.07;2.50;;;12.50;93.90;;;;;;4955901;28;20475;-67
2022/02/21 08:09:50;;;;;;;10.63;2.50;;;12.60;94.10;;;;;;4956147;28;20456;-67
2022/02/21 08:12:16;;;;;;;6.50;2.70;;;12.90;93.60;;;;;;4956086;28;20480;-67
2022/02/21 08:14:43;;;;;;;7.27;2.30;;;13.10;92.10;;;;;;4956567;28;20464;-67
2022/02/21 08:17:10;;;;;;;8.10;2.57;;;13.40;93.10;;;;;;4957074;28;20452;-67
2022/02/21 08:19:36;;;;;;;9.70;2.57;;;13.30;91.70;;;;;;4956634;28;20456;-67
2022/02/21 08:22:03;;;;;;;9.10;2.50;;;12.90;92.20;;;;;;4956748;28;20857;-66
2022/02/21 08:24:30;;;;;;;9.63;3.33;;;12.10;93.20;;;;;;4956882;28;20455;-66
2022/02/21 08:26:58;;;;;;;7.03;3.10;;;11.60;93.90;;;;;;4956319;28;20482;-67
2022/02/21 08:29:25;;;;;;;8.27;2.43;;;10.90;95.40;;;;;;4956315;28;20482;-67
2022/02/21 08:31:54;;;;;;;7.93;2.60;;;10.40;96.00;;;;;;4956037;28;20479;-66
2022/02/21 08:34:22;;;;;;;15.03;2.93;;;10.70;97.20;;;;;;4955637;28;20507;-65
2022/02/21 08:36:49;;;;;;;7.33;2.70;;;11.20;96.20;;;;;;4956933;28;20459;-65
2022/02/21 08:39:16;;;;;;;7.13;2.40;;;11.50;95.30;;;;;;4958874;28;20862;-65
2022/02/21 08:41:44;;;;;;;12.63;2.40;;;11.60;96.00;;;;;;4959121;28;20498;-66
2022/02/21 08:44:12;;;;;;;7.97;2.90;;;11.90;95.20;;;;;;4959036;28;20460;-66
2022/02/21 08:46:38;;;;;;;11.23;2.50;;;11.80;93.20;;;;;;4959108;28;20459;-67
2022/02/21 08:49:06;;;;;;;5.80;2.13;;;12.60;94.10;;;;;;4959018;28;20883;-67
2022/02/21 08:51:33;;;;;;;9.60;2.20;;;13.00;92.50;;;;;;4958948;28;20479;-67
2022/02/21 08:54:00;;;;;;;6.90;2.27;;;13.10;92.30;;;;;;4959158;28;20838;-67
2022/02/21 08:56:27;;;;;;;8.77;2.50;;;12.50;93.20;;;;;;4964548;28;20478;-67
2022/02/21 08:58:54;;;;;;;9.83;2.90;;;12.50;93.80;;;;;;4963583;28;20511;-67
2022/02/21 09:01:22;;;;;;;10.53;2.50;;;11.80;92.90;;;;;;4958607;28;20491;-66
2022/02/21 09:03:49;;;;;;;8.40;2.43;;;10.60;93.60;;;;;;4958802;28;20462;-66
2022/02/21 09:06:16;;;;;;;14.00;3.10;;;10.00;94.60;;;;;;4958647;28;20542;-67
2022/02/21 09:08:43;;;;;;;6.43;2.03;;;9.50;96.70;;;;;;4958380;28;20538;-67
2022/02/21 09:11:10;;;;;;;6.00;2.27;;;9.30;98.10;;;;;;4958280;28;20998;-67
2022/02/21 09:13:37;;;;;;;10.13;2.60;;;8.90;99.00;;;;;;4958615;28;20461;-67
2022/02/21 09:16:04;;;;;;;9.67;3.20;;;8.70;99.50;;;;;;4958139;28;20950;-66
2022/02/21 09:18:32;;;;;;;8.17;2.53;;;8.50;99.90;;;;;;4958380;28;20528;-66
2022/02/21 09:20:59;;;;;;;6.80;2.60;;;8.50;99.90;;;;;;4958280;28;20565;-65
2022/02/21 09:23:26;;;;;;;9.70;2.40;;;8.30;99.90;;;;;;4958580;28;20486;-65
2022/02/21 09:25:54;;;;;;;9.77;2.73;;;8.30;99.90;;;;;;4958140;28;20463;-65
2022/02/21 09:28:20;;;;;;;7.60;1.87;;;8.20;99.90;;;;;;4958127;28;20535;-66
2022/02/21 09:30:47;;;;;;;5.40;1.63;;;8.20;99.90;;;;;;4958296;28;20472;-65
2022/02/21 09:33:14;;;;;;;6.83;2.23;;;8.00;99.90;;;;;;4957901;28;20466;-65
2022/02/21 09:35:42;;;;;;;4.43;1.80;;;7.80;99.90;;;;;;4957816;28;20471;-65
2022/02/21 09:38:09;;;;;;;9.07;1.60;;;7.60;99.90;;;;;;4957993;28;20459;-65
2022/02/21 09:40:36;;;;;;;7.67;1.50;;;7.60;99.90;;;;;;4958600;28;20518;-65
2022/02/21 09:43:02;;;;;;;8.30;1.90;;;8.10;99.90;;;;;;4957859;28;20813;-65
2022/02/21 09:45:30;;;;;;;4.30;2.27;;;8.30;99.90;;;;;;4957873;28;20460;-65
2022/02/21 09:47:57;;;;;;;7.00;2.20;;;8.60;99.90;;;;;;4957773;28;20475;-65
2022/02/21 09:50:27;;;;;;;3.23;1.40;;;9.90;99.90;;;;;;4957785;28;20452;-66
2022/02/21 09:53:01;;;;;;;3.77;1.87;;;11.40;96.80;;;;;;4957903;28;20464;-66
2022/02/21 09:55:28;;;;;;;6.87;2.43;;;12.70;95.10;;;;;;4957763;28;20467;-66
2022/02/21 09:57:56;;;;;;;6.13;2.10;;;12.80;92.30;;;;;;4957693;28;20456;-67
2022/02/21 10:00:24;;;;;;;6.53;2.40;;;12.50;92.80;;;;;;4957488;28;20463;-67
2022/02/21 10:02:51;;;;;;;9.03;3.03;;;11.80;93.30;;;;;;4958105;28;20448;-67
2022/02/21 10:05:21;;;;;;;6.80;2.30;;;11.20;95.30;;;;;;4957488;28;20537;-66
2022/02/21 10:07:48;;;;;;;11.03;2.20;;;10.80;95.70;;;;;;4957498;28;20515;-67
2022/02/21 10:10:20;;;;;;;8.83;2.00;;;10.30;96.50;;;;;;4957357;28;20485;-67
2022/02/21 10:12:48;;;;;;;6.63;2.20;;;9.70;98.00;;;;;;4957093;28;20830;-66
2022/02/21 10:15:18;;;;;;;6.77;1.73;;;9.30;99.40;;;;;;4956988;28;20466;-67
2022/02/21 10:17:45;;;;;;;8.50;2.17;;;9.00;99.90;;;;;;4957332;28;20458;-67
2022/02/21 10:20:12;;;;;;;3.23;1.97;;;8.90;99.90;;;;;;4957273;28;20510;-67
2022/02/21 10:22:39;;;;;;;8.13;2.53;;;8.90;99.90;;;;;;4956881;28;20943;-66
2022/02/21 10:25:18;;;;;;;6.73;1.60;;;8.80;99.90;;;;;;4957147;28;20467;-66
2022/02/21 10:27:44;;;;;;;6.60;1.73;;;8.90;99.90;;;;;;4958579;28;21010;-65
2022/02/21 10:30:16;;;;;;;5.57;2.07;;;8.90;98.90;;;;;;4963734;28;20463;-65
2022/02/21 10:32:44;;;;;;;5.23;1.77;;;8.80;99.40;;;;;;4957441;28;20451;-65
2022/02/21 10:35:13;;;;;;;4.80;1.50;;;9.00;99.90;;;;;;4957350;28;20952;-65
2022/02/21 10:37:45;;;;;;;4.60;1.50;;;9.50;97.40;;;;;;4958303;28;20555;-66
2022/02/21 10:40:14;;;;;;;9.30;2.70;;;10.70;97.60;;;;;;4957540;28;20951;-65
2022/02/21 10:42:44;;;;;;;2.50;1.70;;;11.30;93.00;;;;;;4956550;28;20970;-65
2022/02/21 10:45:13;;;;;;;6.07;1.90;;;12.00;92.40;;;;;;4956876;28;20466;-65
2022/02/21 10:47:41;;;;;;;4.13;1.47;;;12.90;90.50;;;;;;4956912;28;20495;-66
2022/02/21 10:50:10;;;;;;;3.80;1.50;;;14.20;88.80;;;;;;4956835;28;20455;-66
2022/02/21 10:52:39;;;;;;;4.53;1.30;;;14.90;78.60;;;;;;4956494;28;20579;-66
2022/02/21 10:55:09;;;;;;;6.87;1.67;;;15.00;75.70;;;;;;4956429;28;20821;-66
2022/02/21 10:57:42;;;;;;;3.20;1.50;;;15.70;76.60;;;;;;4956210;28;20452;-66
2022/02/21 11:00:10;;;;;;;3.83;1.80;;;16.40;69.50;;;;;;4956047;28;20459;-66
2022/02/21 11:02:40;;;;;;;3.47;2.10;;;16.00;69.50;;;;;;4956665;28;20504;-66
2022/02/21 11:05:09;;;;;;;4.00;1.83;;;16.90;72.40;;;;;;4955973;28;20827;-66
2022/02/21 11:07:38;;;;;;;4.33;1.70;;;17.40;69.80;;;;;;4956275;28;20506;-66
2022/02/21 11:10:06;;;;;;;4.77;2.07;;;17.70;66.70;;;;;;4955907;28;21023;-66
2022/02/21 11:12:36;;;;;;;3.23;1.40;;;17.80;63.60;;;;;;4956352;28;20502;-66
2022/02/21 11:15:06;;;;;;;4.83;1.80;;;17.60;60.70;;;;;;4955976;28;20971;-66
2022/02/21 11:17:33;;;;;;;3.63;1.60;;;16.80;60.20;;;;;;4955936;28;20831;-66
2022/02/21 11:20:00;;;;;;;4.73;1.00;;;16.30;63.60;;;;;;4956011;28;20466;-67
2022/02/21 11:22:28;;;;;;;3.90;1.70;;;15.00;63.90;;;;;;4956250;28;20483;-65
2022/02/21 11:25:03;;;;;;;4.53;1.63;;;13.70;67.50;;;;;;4956169;28;20495;-66
2022/02/21 11:27:38;;;;;;;3.30;1.53;;;12.40;74.70;;;;;;4956177;28;20495;-65
2022/02/21 11:30:11;;;;;;;3.87;1.47;;;11.20;80.50;;;;;;4955743;28;20916;-65
2022/02/21 11:32:40;;;;;;;4.00;1.80;;;10.40;87.70;;;;;;4955891;28;20480;-66
2022/02/21 11:35:16;;;;;;;2.33;1.10;;;9.70;92.90;;;;;;4956040;28;20491;-66
2022/02/21 11:37:43;;;;;;;4.60;1.10;;;8.90;96.60;;;;;;4956094;28;20443;-66
2022/02/21 11:40:11;;;;;;;5.33;1.60;;;8.20;98.20;;;;;;4955876;28;20816;-65
2022/02/21 11:42:38;;;;;;;7.70;1.57;;;7.90;99.70;;;;;;4955828;28;20483;-65
2022/02/21 11:45:23;;;;;;;6.73;1.53;;;7.60;99.90;;;;;;4955668;28;20455;-65
2022/02/21 11:47:52;;;;;;;5.33;1.33;;;7.40;99.90;;;;;;4956363;28;20444;-66
2022/02/21 11:50:28;;;;;;;5.37;1.37;;;7.60;99.90;;;;;;4955860;28;20455;-65
2022/02/21 11:52:56;;;;;;;3.87;1.33;;;8.00;99.90;;;;;;4955956;28;20451;-65
2022/02/21 11:55:40;;;;;;;2.97;1.60;;;8.60;99.90;;;;;;4955566;28;20966;-65
2022/02/21 11:58:37;;;;;;;4.23;1.47;;;8.90;99.90;;;;;;4956079;28;20456;-66
2022/02/21 12:01:14;;;;;;;5.23;2.00;;;9.30;99.90;;;;;;4959911;28;20541;-66
2022/02/21 12:03:41;;;;;;;4.00;1.80;;;9.10;99.90;;;;;;4956075;28;20908;-65
2022/02/21 12:06:29;;;;;;;3.20;1.40;;;9.30;99.90;;;;;;4955737;28;20943;-65
2022/02/21 12:09:01;;;;;;;3.57;1.33;;;8.90;99.90;;;;;;4955753;28;20530;-65
2022/02/21 12:11:30;;;;;;;4.60;1.50;;;9.00;99.90;;;;;;4957082;28;20534;-65
2022/02/21 12:14:20;;;;;;;6.27;1.53;;;9.30;99.90;;;;;;4959662;28;20460;-65
2022/02/21 12:17:07;;;;;;;6.27;2.10;;;9.20;99.20;;;;;;4959577;28;20476;-66
2022/02/21 12:19:40;;;;;;;4.70;1.70;;;9.50;98.60;;;;;;4965735;28;20451;-65
2022/02/21 12:22:15;;;;;;;3.67;1.40;;;9.60;96.90;;;;;;4975375;28;20499;-66
2022/02/21 12:25:19;;;;;;;3.40;1.53;;;9.80;96.70;;;;;;4962743;28;20455;-65
2022/02/21 12:28:11;;;;;;;6.53;1.67;;;10.00;94.70;;;;;;4959522;28;20530;-65
2022/02/21 12:30:39;;;;;;;4.37;1.53;;;10.10;92.80;;;;;;4959489;28;20894;-67
2022/02/21 12:33:07;;;;;;;5.70;1.70;;;10.00;92.80;;;;;;4959401;28;20459;-67
2022/02/21 12:35:48;;;;;;;8.47;1.97;;;10.00;92.50;;;;;;4959304;28;20463;-66
2022/02/21 12:38:16;;;;;;;4.20;1.40;;;9.90;93.30;;;;;;4959407;28;20443;-66
2022/02/21 12:40:54;;;;;;;4.93;1.60;;;9.90;93.00;;;;;;4959422;28;20472;-66
2022/02/21 12:43:21;;;;;;;5.70;1.60;;;9.80;94.10;;;;;;4959402;28;20462;-67
2022/02/21 12:45:48;;;;;;;5.20;1.77;;;9.60;93.90;;;;;;4959098;28;20466;-67
2022/02/21 12:48:16;;;;;;;4.60;1.40;;;9.50;93.60;;;;;;4958970;28;20462;-66
2022/02/21 12:50:43;;;;;;;6.77;1.30;;;9.60;94.70;;;;;;4958851;28;20995;-67
2022/02/21 12:53:10;;;;;;;4.10;1.20;;;9.60;95.00;;;;;;4959029;28;20514;-66
2022/02/21 12:55:47;;;;;;;5.60;1.57;;;9.50;94.50;;;;;;4959031;28;20459;-65
2022/02/21 12:58:14;;;;;;;4.73;2.37;;;9.20;95.40;;;;;;4958970;28;20502;-65
2022/02/21 13:00:41;;;;;;;4.43;1.60;;;9.10;95.40;;;;;;4958575;28;20487;-66
2022/02/21 13:03:07;;;;;;;4.53;1.77;;;9.00;95.70;;;;;;4958814;28;20451;-66
2022/02/21 13:05:35;;;;;;;7.77;1.30;;;9.00;95.90;;;;;;4958936;28;20463;-65
2022/02/21 13:08:04;;;;;;;5.47;1.80;;;8.70;96.30;;;;;;4958636;28;20462;-66
2022/02/21 13:10:43;;;;;;;3.60;1.20;;;8.50;97.30;;;;;;4958741;28;20486;-66
2022/02/21 13:13:09;;;;;;;6.53;1.50;;;8.60;98.70;;;;;;4958620;28;20990;-66
2022/02/21 13:15:38;;;;;;;3.23;1.20;;;8.60;98.60;;;;;;4959019;28;20464;-66
2022/02/21 13:18:04;;;;;;;3.57;1.13;;;8.50;98.00;;;;;;4958866;28;20546;-66
2022/02/21 13:20:31;;;;;;;6.10;1.80;;;8.70;99.40;;;;;;4960574;28;20452;-65
2022/02/21 13:23:02;;;;;;;2.70;1.20;;;8.40;99.00;;;;;;4958181;28;20459;-65
2022/02/21 13:25:28;;;;;;;9.37;2.43;;;8.40;99.90;;;;;;4958597;28;20448;-67
2022/02/21 13:28:14;;;;;;;2.77;1.20;;;8.30;99.90;;;;;;4958648;28;20459;-67
2022/02/21 13:30:41;;;;;;;3.07;1.13;;;8.30;99.90;;;;;;4958574;28;20483;-64
2022/02/21 13:33:11;;;;;;;4.27;1.07;;;8.20;99.90;;;;;;4965350;28;20452;-66
2022/02/21 13:35:38;;;;;;;5.80;1.30;;;8.20;99.90;;;;;;4959320;28;20444;-65
2022/02/21 13:38:07;;;;;;;3.40;1.43;;;8.20;99.90;;;;;;4958626;28;20460;-65
2022/02/21 13:40:35;;;;;;;7.93;1.33;;;8.20;99.90;;;;;;4958226;28;20451;-65
2022/02/21 13:43:05;;;;;;;2.17;1.50;;;8.10;99.90;;;;;;4958344;28;20495;-65
2022/02/21 13:45:34;;;;;;;3.27;1.43;;;8.20;99.90;;;;;;4958348;28;20462;-65
2022/02/21 13:48:07;;;;;;;5.03;1.50;;;8.30;99.90;;;;;;4958352;28;20455;-65
2022/02/21 13:50:40;;;;;;;4.03;1.43;;;8.40;99.90;;;;;;4958054;28;20467;-65
2022/02/21 13:53:10;;;;;;;4.03;1.13;;;8.30;99.90;;;;;;4958619;28;20452;-65
2022/02/21 13:55:37;;;;;;;2.60;1.30;;;8.40;99.90;;;;;;4958007;28;20444;-65
2022/02/21 13:58:06;;;;;;;2.50;1.30;;;8.40;99.90;;;;;;4958444;28;20460;-66
2022/02/21 14:00:38;;;;;;;3.57;1.20;;;8.40;99.90;;;;;;4959027;28;20476;-66
2022/02/21 14:03:05;;;;;;;4.70;1.50;;;8.20;99.90;;;;;;4958718;28;20440;-66
2022/02/21 14:05:33;;;;;;;2.20;1.40;;;8.00;99.90;;;;;;4957836;28;20464;-66
2022/02/21 14:08:00;;;;;;;2.80;1.20;;;7.90;99.90;;;;;;4957338;28;20997;-66
2022/02/21 14:10:28;;;;;;;4.33;1.50;;;7.70;99.90;;;;;;4957321;28;20846;-66
2022/02/21 14:12:56;;;;;;;4.10;1.43;;;7.80;99.90;;;;;;4957749;28;20463;-65
2022/02/21 14:15:23;;;;;;;1.70;1.10;;;7.90;99.90;;;;;;4957815;28;20460;-65
2022/02/21 14:17:50;;;;;;;4.23;1.57;;;7.90;99.90;;;;;;4957567;28;20455;-65
2022/02/21 14:20:17;;;;;;;2.80;0.80;;;7.80;99.90;;;;;;4957721;28;20462;-65
2022/02/21 14:22:43;;;;;;;2.27;1.20;;;7.80;99.90;;;;;;4957312;28;20462;-65
2022/02/21 14:25:10;;;;;;;6.43;1.90;;;7.70;99.90;;;;;;4957563;28;20467;-65
2022/02/21 14:27:38;;;;;;;12.00;1.43;;;7.70;99.90;;;;;;4957063;28;20463;-65
2022/02/21 14:30:06;;;;;;;5.13;1.67;;;7.80;99.90;;;;;;4957176;28;20838;-65
2022/02/21 14:32:32;;;;;;;4.20;1.00;;;7.90;99.90;;;;;;4957326;28;20488;-66
2022/02/21 14:34:59;;;;;;;1.97;1.40;;;7.80;99.90;;;;;;4956006;28;20467;-66
2022/02/21 14:37:26;;;;;;;4.40;1.07;;;7.70;99.90;;;;;;4957220;28;20805;-66
2022/02/21 14:39:52;;;;;;;3.90;1.50;;;7.50;99.90;;;;;;4956871;28;20452;-66
2022/02/21 14:42:19;;;;;;;1.80;0.90;;;7.60;99.90;;;;;;4956541;28;20476;-66
2022/02/21 14:44:47;;;;;;;3.00;1.13;;;7.60;99.90;;;;;;4956747;28;20942;-66
2022/02/21 14:47:14;;;;;;;2.90;1.20;;;7.70;99.90;;;;;;4956905;28;20467;-66
2022/02/21 14:49:43;;;;;;;5.70;1.23;;;7.60;99.90;;;;;;4956851;28;20475;-67
2022/02/21 14:52:10;;;;;;;3.70;1.07;;;7.70;99.90;;;;;;4956817;28;20480;-67
2022/02/21 14:54:37;;;;;;;8.20;1.60;;;7.70;99.90;;;;;;4956753;28;20456;-66
2022/02/21 14:57:04;;;;;;;5.03;1.70;;;7.70;99.90;;;;;;4956754;28;20456;-66
2022/02/21 14:59:30;;;;;;;6.43;1.20;;;7.40;99.90;;;;;;4956965;28;20433;-66
2022/02/21 15:01:58;;;;;;;6.13;2.10;;;7.50;99.90;;;;;;4956466;28;20487;-67
2022/02/21 15:04:25;;;;;;;2.40;1.40;;;7.40;99.90;;;;;;4957988;28;20985;-66
2022/02/21 15:06:52;;;;;;;4.17;1.50;;;7.40;99.90;;;;;;4957519;28;20947;-66
2022/02/21 15:09:18;;;;;;;3.70;1.33;;;7.40;99.90;;;;;;4956376;28;20480;-65
2022/02/21 15:11:46;;;;;;;3.47;1.20;;;7.30;99.90;;;;;;4956578;28;20580;-65
2022/02/21 15:14:13;;;;;;;2.80;0.87;;;7.40;99.90;;;;;;4956531;28;20455;-65
2022/02/21 15:16:40;;;;;;;2.43;0.90;;;7.40;99.90;;;;;;4956424;28;20466;-64
2022/02/21 15:19:08;;;;;;;3.17;1.60;;;7.40;99.90;;;;;;4956535;28;20460;-64
2022/02/21 15:21:37;;;;;;;2.07;1.50;;;7.50;99.90;;;;;;4956648;28;20479;-64
2022/02/21 15:24:06;;;;;;;3.00;0.90;;;7.60;99.90;;;;;;4956560;28;20455;-65
2022/02/21 15:26:33;;;;;;;5.30;1.20;;;7.50;99.90;;;;;;4955988;28;21010;-65
2022/02/21 15:29:01;;;;;;;0.70;0.70;;;7.40;99.90;;;;;;4956666;28;20464;-66
2022/02/21 15:31:28;;;;;;;5.20;2.17;;;7.40;99.90;;;;;;4956334;28;20482;-65
2022/02/21 15:33:55;;;;;;;5.80;1.17;;;7.30;99.90;;;;;;4956093;28;20459;-66
2022/02/21 15:36:23;;;;;;;3.50;0.90;;;7.20;99.90;;;;;;4956583;28;20447;-66
2022/02/21 15:38:49;;;;;;;4.50;1.40;;;7.20;99.90;;;;;;4956529;28;20467;-66
2022/02/21 15:41:16;;;;;;;2.70;1.10;;;7.20;99.90;;;;;;4956458;28;20476;-66
2022/02/21 15:43:43;;;;;;;7.33;1.07;;;7.20;99.90;;;;;;4963146;28;20441;-66
2022/02/21 15:46:10;;;;;;;2.50;1.20;;;7.10;99.90;;;;;;4971363;28;20456;-66
2022/02/21 15:48:37;;;;;;;2.53;0.80;;;7.00;99.90;;;;;;4962954;28;20456;-65
2022/02/21 15:51:04;;;;;;;1.53;1.00;;;7.00;99.90;;;;;;4956170;28;20487;-65
2022/02/21 15:53:34;;;;;;;1.33;1.03;;;7.00;99.90;;;;;;4955550;28;20957;-65
2022/02/21 15:56:01;;;;;;;5.67;1.10;;;7.00;99.90;;;;;;4956040;28;20440;-65
2022/02/21 15:58:28;;;;;;;1.90;0.80;;;7.00;99.90;;;;;;4955797;28;20805;-65
2022/02/21 16:00:56;;;;;;;2.83;1.17;;;6.90;99.90;;;;;;4955566;28;20484;-65
2022/02/21 16:03:23;;;;;;;1.90;0.93;;;6.90;99.90;;;;;;4956264;28;20472;-65
2022/02/21 16:05:50;;;;;;;2.53;0.87;;;6.80;99.90;;;;;;4955903;28;20557;-65
2022/02/21 16:08:16;;;;;;;3.07;1.10;;;6.70;99.90;;;;;;4955606;28;20459;-65
2022/02/21 16:10:44;;;;;;;3.10;0.97;;;6.70;99.90;;;;;;4955608;28;20484;-65
2022/02/21 16:13:11;;;;;;;5.57;1.33;;;6.80;99.90;;;;;;4955750;28;20444;-65
2022/02/21 16:15:38;;;;;;;1.40;0.80;;;6.70;99.90;;;;;;4955437;28;20943;-65
2022/02/21 16:18:05;;;;;;;2.67;1.03;;;6.70;99.90;;;;;;4955683;28;20456;-65
2022/02/21 16:20:32;;;;;;;4.27;1.20;;;6.60;99.90;;;;;;4955436;28;20841;-65
2022/02/21 16:22:59;;;;;;;2.07;1.27;;;6.50;99.90;;;;;;4955412;28;20940;-66
2022/02/21 16:25:25;;;;;;;1.93;1.73;;;6.50;99.90;;;;;;4955630;28;20459;-66
2022/02/21 16:27:54;;;;;;;2.87;0.90;;;6.50;99.90;;;;;;4956079;28;20464;-66
2022/02/21 16:30:21;;;;;;;4.57;1.20;;;6.50;99.90;;;;;;4955837;28;20909;-66
2022/02/21 16:32:48;;;;;;;2.40;0.90;;;6.40;99.90;;;;;;4955603;28;20458;-65
2022/02/21 16:35:15;;;;;;;1.90;1.20;;;6.20;99.90;;;;;;4955904;28;20498;-67
2022/02/21 16:37:42;;;;;;;1.80;0.90;;;6.20;99.90;;;;;;4957110;28;20485;-66
2022/02/21 16:40:10;;;;;;;4.20;1.23;;;6.20;99.90;;;;;;4955686;28;20866;-66
2022/02/21 16:42:37;;;;;;;0.87;0.87;;;6.20;99.90;;;;;;4955370;28;20482;-67
2022/02/21 16:45:07;;;;;;;3.67;1.50;;;6.00;99.90;;;;;;4955206;28;20867;-67
2022/02/21 16:47:35;;;;;;;1.20;1.07;;;6.10;99.90;;;;;;4955436;28;20448;-66
2022/02/21 16:50:03;;;;;;;0.90;0.90;;;6.00;99.90;;;;;;4955219;28;20879;-66
2022/02/21 16:52:30;;;;;;;2.40;1.53;;;5.90;99.90;;;;;;4955237;28;20484;-66
2022/02/21 16:54:57;;;;;;;1.60;1.00;;;5.90;99.90;;;;;;4955426;28;20867;-66
2022/02/21 16:57:24;;;;;;;3.00;1.10;;;6.00;99.90;;;;;;4956581;28;20456;-66
2022/02/21 16:59:51;;;;;;;3.23;0.93;;;6.00;99.90;;;;;;4959038;28;20459;-66
2022/02/21 17:02:19;;;;;;;5.10;1.63;;;5.90;99.90;;;;;;4958708;28;20490;-66
2022/02/21 17:04:46;;;;;;;2.10;1.27;;;5.90;99.90;;;;;;4959087;28;20464;-66
2022/02/21 17:07:13;;;;;;;2.07;1.00;;;6.00;99.90;;;;;;4959282;28;20462;-66
2022/02/21 17:09:39;;;;;;;3.43;1.97;;;5.90;99.90;;;;;;4958852;28;20450;-66
2022/02/21 17:12:07;;;;;;;5.53;3.40;;;6.00;99.90;;;;;;4958875;28;20480;-67
2022/02/21 17:14:35;;;;;;;7.73;3.73;;;6.00;99.90;;;;;;4958521;28;20460;-66
2022/02/21 17:17:02;;;;;;;2.40;1.30;;;6.00;99.90;;;;;;4958377;28;20466;-66
2022/02/21 17:19:30;;;;;;;4.23;2.20;;;6.10;99.90;;;;;;4958462;28;20466;-67
2022/02/21 17:21:57;;;;;;;1.80;1.23;;;6.20;99.90;;;;;;4958104;28;20472;-67
2022/02/21 17:24:24;;;;;;;2.43;1.50;;;6.20;99.90;;;;;;4958367;28;20462;-66
2022/02/21 17:26:50;;;;;;;9.37;4.00;;;6.20;99.90;;;;;;4957979;28;20460;-66
2022/02/21 17:29:17;;;;;;;2.10;0.90;;;6.30;99.90;;;;;;4958077;28;20463;-67
2022/02/21 17:31:44;;;;;;;1.70;1.10;;;6.30;99.90;;;;;;4958272;28;20499;-66
2022/02/21 17:34:11;;;;;;;4.80;0.90;;;6.40;99.90;;;;;;4958032;28;20456;-66
2022/02/21 17:36:39;;;;;;;2.63;1.10;;;6.50;99.90;;;;;;4957365;28;20947;-66
2022/02/21 17:39:05;;;;;;;3.43;1.10;;;6.50;99.90;;;;;;4958270;28;20200;-66
2022/02/21 17:41:32;;;;;;;4.60;0.90;;;6.60;99.90;;;;;;4958041;28;20574;-66
2022/02/21 17:43:59;;;;;;;1.33;1.10;;;6.50;99.90;;;;;;4958160;28;20490;-66
2022/02/21 17:46:27;;;;;;;2.20;1.00;;;6.60;99.90;;;;;;4957893;28;20459;-66
2022/02/21 17:48:54;;;;;;;4.00;1.27;;;6.60;99.90;;;;;;4957859;28;20514;-65
2022/02/21 17:51:20;;;;;;;2.10;1.13;;;6.50;99.90;;;;;;4958208;28;20847;-66
2022/02/21 17:53:48;;;;;;;2.00;1.23;;;6.60;99.90;;;;;;4957855;28;20444;-66
2022/02/21 17:56:15;;;;;;;2.67;1.00;;;6.70;99.90;;;;;;4958040;28;20462;-66
2022/02/21 17:58:42;;;;;;;5.10;2.03;;;6.70;99.90;;;;;;4957427;28;20935;-66